Weather history for 0414

Weather History For Prescott AZ

This page updates 5 minutes after midnight. GMT -7

Station: KPRC0 Rows: 26

Return to today's weather
Year Date Temp (°F) Tmin (°F) Tmax (°F) RH% Prcp Snow Wind Gust Pres Sun Cloud
2000 2000-04-14 56.7 46.0 64.0 34 25.7 29.68 3
2001 2001-04-14 52.2 37.0 66.9 33 11.8 29.95 0
2002 2002-04-14 65.8 24 12.7 29.81 0
2003 2003-04-14 54.9 40 19.7 29.83 0
2004 2004-04-14 57.2 42.8 69.8 26 17.5 29.90 0
2005 2005-04-14 57.9 39.0 73.9 29 0.0 10.5 29.86 0
2006 2006-04-14 59.7 46.0 73.0 36 21.5 29.74 2
2007 2007-04-14 52.2 36.0 66.9 26 0.0 10.0 29.99 0
2008 2008-04-14 61.3 42.1 79.0 19 0.0 9.2 29.94 0
2009 2009-04-14 57.7 50.0 66.0 37 0.0 20.6 29.65 2
2010 2010-04-14 50.4 37 0.0 10.7 29.90 0
2011 2011-04-14 49.3 37.0 63.0 26 0.0 16.1 30.03 0
2012 2012-04-14 34.9 32.0 39.2 80 18.3 29.72 7
2013 2013-04-14 60.4 50.0 70.0 27 0.0 18.8 29.61 0
2014 2014-04-14 52.9 37.0 66.9 17 0.0 12.1 30.02 0
2015 2015-04-14 61.5 46.9 73.0 22 0.0 20.6 29.90 1
2016 2016-04-14 57.9 44.1 69.1 42 0.0 17.7 29.78 0
2017 2017-04-14 57.9 42.1 70.0 32 0.0 16.3 29.80 0
2018 2018-04-14 51.8 33.1 69.1 16 0.0 12.4 30.15 0
2019 2019-04-14 55.0 39.9 69.1 30 0.0 14.1 29.88 0
2020 2020-04-14 44.4 32.0 57.9 45 0.0 8.7 30.09 0
2021 2021-04-14 57.2 46.9 68.0 30 0.0 20.1 29.72 0
2022 2022-04-14 50.2 32.0 66.0 20 0.0 12.2 29.89 0
2023 2023-04-14 51.8 41.0 63.0 43 0.0 15.8 29.73 0
2024 2024-04-14 54.0 44.1 64.0 26 0.0 16.6 29.88 0
2025 2025-04-14 62.1 48.9 75.0 20 0.0 11.1 29.93 1
Average Low 41.1
Average High 67.1

Daily High / Low by Year (04/14)

Barometric Pressure by Year (04/14)

Weather data provided by Meteostat